Aérodrome :
LOGIN :

S'inscrire | Disclaimer

   EN    FR    IT 

 










Légende :    VFR   VFR Marginal   IFR   IFR Intensif   IFR Très Intensif
Visi : 
Plafond : 
>= 8 km
>= 3000ft
5 à 8 km
1000 à 3000 ft
1500m à 5 km
500 à 1000 ft
800 à 1500m
200 à 500 ft
< 800m
< 200 ft
Symboles :   Orages  Brouillard  Fortes neiges  Fortes précipitations  Vent > 20 kt
SIGMETs :   Divers  Orages  Givrage  Turbulence  Onde Orograph.  Cendres Volcan.






- Altitude de l'aérodrome : 17 ft
- Code IATA : GRQ


EHGG - Groningen Eelde

DERNIER METAR :
  • 201925Z AUTO 03005KT 9999 NCD 13/10 Q1019 NOSIG

METARs EXPIRÉS :
  • 201855Z AUTO 04005KT 9999 NCD 14/11 Q1019 NOSIG
  • 201825Z AUTO 04006KT 9999 NCD 15/11 Q1019 NOSIG
  • 201755Z AUTO 03008KT 360V060 9999 NCD 16/11 Q1019 NOSIG
  • 201725Z AUTO 03008KT 9999 NCD 17/12 Q1019 NOSIG
  • 201655Z AUTO 02007KT 350V050 9999 NCD 18/12 Q1019 NOSIG

TAF TAF EHGG
Valide du 20 à 18h jusqu'au 22 à 00h UTC


201637Z 2018/2124 05008KT CAVOK
PROB30
TEMPO 2100/2107 1400 BCFG
BECMG 2122/2124 4000 MIFG BR



MET'MAP, la Météo Aéronautique d'un coup d'oeil ! - Copyright ORBIFLY Décembre 2007 - Disclaimer

ORBIFLY MET'MAP TEAM :

Programmation & Développement : Alexandra Zaïnal
Sur une idée originale de : Baudouin d'Aumeries
Assistance à la programmation : Marc-Olivier Méhu
Soutien technique & logistique : Manuel Goepfert

Contact : metmap@orbifly.com




SOURCES & CREDITS :

   NOAA